Time;durP1;ratioP1;P1;durP2;ratioP2;P2;SDS_P1;SDS_P2;PMS_P1;PMS_P2;Temp;Humidity;BMP_temperature;BMP_pressure;BME280_temperature;BME280_humidity;BME280_pressure;Samples;Min_cycle;Max_cycle;Signal;HPM_P1;HPM_P2
2023/02/19 00:00:40;;;;;;;;;;;;;;;;;;5047503;28;20363;-84
2023/02/19 00:03:05;;;;;;;;;;;;;;;;;;5032031;28;20321;-83
2023/02/19 00:05:30;;;;;;;;;;;;;;;;;;5033784;28;19913;-84
2023/02/19 00:07:56;;;;;;;;;;;;;;;;;;5049844;28;20279;-84
2023/02/19 00:10:21;;;;;;;;;;;;;;;;;;5031456;28;19913;-84
2023/02/19 00:12:46;;;;;;;;;;;;;;;;;;5027158;28;20398;-84
2023/02/19 00:15:11;;;;;;;;;;;;;;;;;;5039846;28;20547;-86
2023/02/19 00:17:36;;;;;;;;;;;;;;;;;;5044084;28;19913;-85
2023/02/19 00:20:01;;;;;;;;;;;;;;;;;;5044654;28;19944;-85
2023/02/19 00:22:27;;;;;;;;;;;;;;;;;;5032584;28;19921;-84
2023/02/19 00:24:52;;;;;;;;;;;;;;;;;;5043550;28;20005;-83
2023/02/19 00:27:17;;;;;;;;;;;;;;;;;;5046203;28;19960;-82
2023/02/19 00:29:42;;;;;;;;;;;;;;;;;;5049411;28;20359;-85
2023/02/19 00:32:07;;;;;;;;;;;;;;;;;;5047310;28;19917;-83
2023/02/19 00:34:32;;;;;;;;;;;;;;;;;;5042849;28;19913;-83
2023/02/19 00:36:57;;;;;;;;;;;;;;;;;;5033626;28;19913;-82
2023/02/19 00:39:23;;;;;;;;;;;;;;;;;;5041926;28;20009;-82
2023/02/19 00:41:48;;;;;;;;;;;;;;;;;;5027288;28;19920;-82
2023/02/19 00:44:13;;;;;;;;;;;;;;;;;;5049277;28;19968;-83
2023/02/19 00:46:38;;;;;;;;;;;;;;;;;;5034421;28;19909;-88
2023/02/19 00:49:03;;;;;;;;;;;;;;;;;;5049426;28;19967;-87
2023/02/19 00:51:32;;;;;;;;;;;;;;;;;;5046829;28;19917;-86
2023/02/19 00:53:57;;;;;;;;;;;;;;;;;;5048642;28;20383;-85
2023/02/19 00:56:22;;;;;;;;;;;;;;;;;;5033676;28;19956;-86
2023/02/19 00:58:47;;;;;;;;;;;;;;;;;;5041598;28;19967;-81
2023/02/19 01:01:12;;;;;;;;;;;;;;;;;;5030815;28;19909;-85
2023/02/19 01:03:38;;;;;;;;;;;;;;;;;;5047332;28;19960;-83
2023/02/19 01:06:03;;;;;;;;;;;;;;;;;;5031507;28;19913;-83
2023/02/19 01:08:29;;;;;;;;;;;;;;;;;;5040882;28;20003;-83
2023/02/19 01:10:54;;;;;;;;;;;;;;;;;;5036472;28;19917;-83
2023/02/19 01:13:22;;;;;;;;;;;;;;;;;;5027372;28;20055;-83
2023/02/19 01:15:48;;;;;;;;;;;;;;;;;;5045995;28;20360;-84
2023/02/19 01:18:13;;;;;;;;;;;;;;;;;;5048382;28;19913;-87
2023/02/19 01:20:38;;;;;;;;;;;;;;;;;;5048705;28;19917;-83
2023/02/19 01:23:03;;;;;;;;;;;;;;;;;;5047739;28;19928;-86
2023/02/19 01:25:30;;;;;;;;;;;;;;;;;;5029398;28;19975;-85
2023/02/19 01:27:55;;;;;;;;;;;;;;;;;;5047418;28;19975;-84
2023/02/19 01:30:20;;;;;;;;;;;;;;;;;;5047756;28;20367;-82
2023/02/19 01:32:45;;;;;;;;;;;;;;;;;;5040343;28;19913;-82
2023/02/19 01:35:11;;;;;;;;;;;;;;;;;;5039030;28;19914;-84
2023/02/19 01:37:36;;;;;;;;;;;;;;;;;;5047009;28;19913;-84
2023/02/19 01:40:01;;;;;;;;;;;;;;;;;;5047278;28;19920;-84
2023/02/19 01:42:26;;;;;;;;;;;;;;;;;;5042619;28;19917;-83
2023/02/19 01:44:51;;;;;;;;;;;;;;;;;;5032546;28;19966;-84
2023/02/19 01:47:16;;;;;;;;;;;;;;;;;;5046873;28;19924;-83
2023/02/19 01:49:47;;;;;;;;;;;;;;;;;;5047802;28;19953;-83
2023/02/19 01:52:12;;;;;;;;;;;;;;;;;;5045676;28;19920;-84
2023/02/19 01:54:37;;;;;;;;;;;;;;;;;;5046152;28;21264;-83
2023/02/19 01:57:02;;;;;;;;;;;;;;;;;;5031522;28;20001;-84
2023/02/19 01:59:28;;;;;;;;;;;;;;;;;;5048289;28;20382;-87
2023/02/19 02:01:53;;;;;;;;;;;;;;;;;;5045266;28;19920;-87
2023/02/19 02:04:18;;;;;;;;;;;;;;;;;;5042533;28;19952;-87
2023/02/19 02:06:44;;;;;;;;;;;;;;;;;;5018379;28;19921;-87
2023/02/19 02:11:53;;;;;;;;;;;;;;;;;;5030035;28;20303;-85
2023/02/19 02:14:18;;;;;;;;;;;;;;;;;;5027913;28;20367;-84
2023/02/19 02:16:43;;;;;;;;;;;;;;;;;;5029569;28;19917;-85
2023/02/19 02:19:08;;;;;;;;;;;;;;;;;;5046993;28;19913;-85
2023/02/19 02:21:34;;;;;;;;;;;;;;;;;;5045974;28;19913;-85
2023/02/19 02:24:00;;;;;;;;;;;;;;;;;;5046696;28;19925;-85
2023/02/19 02:26:25;;;;;;;;;;;;;;;;;;5047182;28;19913;-83
2023/02/19 02:28:50;;;;;;;;;;;;;;;;;;5047469;28;19913;-83
2023/02/19 02:31:15;;;;;;;;;;;;;;;;;;5044446;28;20004;-83
2023/02/19 02:33:40;;;;;;;;;;;;;;;;;;5025924;28;19967;-84
2023/02/19 02:36:06;;;;;;;;;;;;;;;;;;5040481;28;19913;-84
2023/02/19 02:38:31;;;;;;;;;;;;;;;;;;5041367;28;19914;-84
2023/02/19 02:40:56;;;;;;;;;;;;;;;;;;5040646;28;20430;-85
2023/02/19 02:43:21;;;;;;;;;;;;;;;;;;5030361;28;20438;-85
2023/02/19 02:45:46;;;;;;;;;;;;;;;;;;5030770;28;19917;-85
2023/02/19 02:48:11;;;;;;;;;;;;;;;;;;5026701;28;20267;-84
2023/02/19 02:50:37;;;;;;;;;;;;;;;;;;5045007;28;19924;-84
2023/02/19 02:55:46;;;;;;;;;;;;;;;;;;5031695;28;19932;-82
2023/02/19 02:58:11;;;;;;;;;;;;;;;;;;5046625;28;19919;-84
2023/02/19 03:03:20;;;;;;;;;;;;;;;;;;5031480;28;19923;-84
2023/02/19 03:05:51;;;;;;;;;;;;;;;;;;5046727;28;20415;-84
2023/02/19 03:08:16;;;;;;;;;;;;;;;;;;5031646;28;20008;-82
2023/02/19 03:10:42;;;;;;;;;;;;;;;;;;5044330;28;20008;-83
2023/02/19 03:21:18;;;;;;;;;;;;;;;;;;5030068;28;19920;-83
2023/02/19 03:26:28;;;;;;;;;;;;;;;;;;5024165;28;20279;-84
2023/02/19 03:31:36;;;;;;;;;;;;;;;;;;5034962;28;19927;-85
2023/02/19 03:34:02;;;;;;;;;;;;;;;;;;5046993;28;20007;-85
2023/02/19 03:36:27;;;;;;;;;;;;;;;;;;5034525;28;19992;-85
2023/02/19 03:38:52;;;;;;;;;;;;;;;;;;5050981;28;19952;-84
2023/02/19 03:41:17;;;;;;;;;;;;;;;;;;5044197;28;20299;-85
2023/02/19 03:43:42;;;;;;;;;;;;;;;;;;5050925;28;19924;-86
2023/02/19 03:46:07;;;;;;;;;;;;;;;;;;5042407;28;19909;-86
2023/02/19 03:48:33;;;;;;;;;;;;;;;;;;5050638;28;19921;-87
2023/02/19 03:50:58;;;;;;;;;;;;;;;;;;5023832;28;20286;-82
2023/02/19 03:53:23;;;;;;;;;;;;;;;;;;5024396;28;19923;-83
2023/02/19 03:55:48;;;;;;;;;;;;;;;;;;5032409;28;19913;-81
2023/02/19 03:58:14;;;;;;;;;;;;;;;;;;5045633;28;19921;-84
2023/02/19 04:00:39;;;;;;;;;;;;;;;;;;5030517;28;19916;-83
2023/02/19 04:03:04;;;;;;;;;;;;;;;;;;5043929;28;19917;-84
2023/02/19 04:05:30;;;;;;;;;;;;;;;;;;5049042;28;19956;-83
2023/02/19 04:07:55;;;;;;;;;;;;;;;;;;5049774;28;20395;-82
2023/02/19 04:10:20;;;;;;;;;;;;;;;;;;5047969;28;19920;-84
2023/02/19 04:12:48;;;;;;;;;;;;;;;;;;5045932;28;19924;-83
2023/02/19 04:15:13;;;;;;;;;;;;;;;;;;5033688;28;20311;-83
2023/02/19 04:17:39;;;;;;;;;;;;;;;;;;5050048;28;20283;-83
2023/02/19 04:20:04;;;;;;;;;;;;;;;;;;5049348;28;19913;-83
2023/02/19 04:22:29;;;;;;;;;;;;;;;;;;5031081;28;19913;-81
2023/02/19 04:24:55;;;;;;;;;;;;;;;;;;5046162;28;19976;-81
2023/02/19 04:27:20;;;;;;;;;;;;;;;;;;5030821;28;20018;-83
2023/02/19 04:29:45;;;;;;;;;;;;;;;;;;5044195;28;19924;-82
2023/02/19 04:32:10;;;;;;;;;;;;;;;;;;5031007;28;19913;-85
2023/02/19 04:34:35;;;;;;;;;;;;;;;;;;5032331;28;19920;-85
2023/02/19 04:37:00;;;;;;;;;;;;;;;;;;5048655;28;19913;-84
2023/02/19 04:39:26;;;;;;;;;;;;;;;;;;5047253;28;19917;-84
2023/02/19 04:41:51;;;;;;;;;;;;;;;;;;5028295;28;19952;-83
2023/02/19 04:44:16;;;;;;;;;;;;;;;;;;5049490;28;19917;-84
2023/02/19 04:46:41;;;;;;;;;;;;;;;;;;5022018;28;20052;-83
2023/02/19 04:49:06;;;;;;;;;;;;;;;;;;5033582;28;19917;-82
2023/02/19 04:51:31;;;;;;;;;;;;;;;;;;5031301;28;19921;-83
2023/02/19 04:53:57;;;;;;;;;;;;;;;;;;5048178;28;20082;-85
2023/02/19 04:56:23;;;;;;;;;;;;;;;;;;5025783;28;19913;-85
2023/02/19 04:58:48;;;;;;;;;;;;;;;;;;5020530;28;19913;-84
2023/02/19 05:01:13;;;;;;;;;;;;;;;;;;5041138;28;19913;-82
2023/02/19 05:03:38;;;;;;;;;;;;;;;;;;5032715;28;19917;-83
2023/02/19 05:06:04;;;;;;;;;;;;;;;;;;5048139;28;19917;-83
2023/02/19 05:08:29;;;;;;;;;;;;;;;;;;5049284;28;19919;-84
2023/02/19 05:10:57;;;;;;;;;;;;;;;;;;5046797;28;20426;-85
2023/02/19 05:13:23;;;;;;;;;;;;;;;;;;5030202;28;19913;-85
2023/02/19 05:15:48;;;;;;;;;;;;;;;;;;5032802;28;19913;-84
2023/02/19 05:18:13;;;;;;;;;;;;;;;;;;5030485;28;20429;-85
2023/02/19 05:20:38;;;;;;;;;;;;;;;;;;5031249;28;20410;-86
2023/02/19 05:23:03;;;;;;;;;;;;;;;;;;5048550;28;19921;-87
2023/02/19 05:25:28;;;;;;;;;;;;;;;;;;5031788;28;19975;-87
2023/02/19 05:28:15;;;;;;;;;;;;;;;;;;5046158;28;19917;-86
2023/02/19 05:30:41;;;;;;;;;;;;;;;;;;5031941;28;19913;-87
2023/02/19 05:33:07;;;;;;;;;;;;;;;;;;5046312;28;19909;-85
2023/02/19 05:35:32;;;;;;;;;;;;;;;;;;5028807;28;20394;-83
2023/02/19 05:37:57;;;;;;;;;;;;;;;;;;5048052;28;19917;-85
2023/02/19 05:40:22;;;;;;;;;;;;;;;;;;5047703;28;20359;-86
2023/02/19 05:42:47;;;;;;;;;;;;;;;;;;5028770;28;20282;-88
2023/02/19 05:45:12;;;;;;;;;;;;;;;;;;5033696;28;19917;-88
2023/02/19 05:47:38;;;;;;;;;;;;;;;;;;5015656;28;19948;-87
2023/02/19 05:50:03;;;;;;;;;;;;;;;;;;5045361;28;19917;-87
2023/02/19 05:52:28;;;;;;;;;;;;;;;;;;5035264;28;19914;-86
2023/02/19 05:54:53;;;;;;;;;;;;;;;;;;5023498;28;19945;-87
2023/02/19 05:57:20;;;;;;;;;;;;;;;;;;5045844;28;21267;-88
2023/02/19 05:59:45;;;;;;;;;;;;;;;;;;5047038;28;19999;-89
2023/02/19 06:02:11;;;;;;;;;;;;;;;;;;5046634;28;19913;-89
2023/02/19 06:04:36;;;;;;;;;;;;;;;;;;5038908;28;19974;-89
2023/02/19 06:07:01;;;;;;;;;;;;;;;;;;5040141;28;19920;-88
2023/02/19 06:09:32;;;;;;;;;;;;;;;;;;5048686;28;19967;-89
2023/02/19 06:11:58;;;;;;;;;;;;;;;;;;5031343;28;19960;-87
2023/02/19 06:14:23;;;;;;;;;;;;;;;;;;5047231;28;19971;-84
2023/02/19 06:16:48;;;;;;;;;;;;;;;;;;5027903;28;19914;-85
2023/02/19 06:19:13;;;;;;;;;;;;;;;;;;5029739;28;19958;-85
2023/02/19 06:21:38;;;;;;;;;;;;;;;;;;5046501;28;19913;-88
2023/02/19 06:24:03;;;;;;;;;;;;;;;;;;5026471;28;20338;-88
2023/02/19 06:26:29;;;;;;;;;;;;;;;;;;5046671;28;20352;-86
2023/02/19 06:28:54;;;;;;;;;;;;;;;;;;5047137;28;19924;-85
2023/02/19 06:31:19;;;;;;;;;;;;;;;;;;5042977;28;19913;-83
2023/02/19 06:33:44;;;;;;;;;;;;;;;;;;5030428;28;20479;-82
2023/02/19 06:36:09;;;;;;;;;;;;;;;;;;5027201;28;19913;-87
2023/02/19 06:38:34;;;;;;;;;;;;;;;;;;5038420;28;20388;-83
2023/02/19 06:41:00;;;;;;;;;;;;;;;;;;5044027;28;19920;-79
2023/02/19 06:43:25;;;;;;;;;;;;;;;;;;5031828;28;19927;-81
2023/02/19 06:45:50;;;;;;;;;;;;;;;;;;5031384;28;19917;-82
2023/02/19 06:48:15;;;;;;;;;;;;;;;;;;5047592;28;19944;-83
2023/02/19 06:50:40;;;;;;;;;;;;;;;;;;5030428;28;20367;-83
2023/02/19 06:53:07;;;;;;;;;;;;;;;;;;5045996;28;20318;-86
2023/02/19 06:55:33;;;;;;;;;;;;;;;;;;5044994;28;20008;-84
2023/02/19 06:57:58;;;;;;;;;;;;;;;;;;5030864;28;20450;-81
2023/02/19 07:00:23;;;;;;;;;;;;;;;;;;5030316;28;19913;-85
2023/02/19 07:02:48;;;;;;;;;;;;;;;;;;5025951;28;19913;-80
2023/02/19 07:05:13;;;;;;;;;;;;;;;;;;5031387;28;19917;-85
2023/02/19 07:07:39;;;;;;;;;;;;;;;;;;5046264;28;19920;-82
2023/02/19 07:10:04;;;;;;;;;;;;;;;;;;5030992;28;19991;-81
2023/02/19 07:12:29;;;;;;;;;;;;;;;;;;5041773;28;19913;-83
2023/02/19 07:14:54;;;;;;;;;;;;;;;;;;5031411;28;20272;-79
2023/02/19 07:17:19;;;;;;;;;;;;;;;;;;5029905;28;20397;-78
2023/02/19 07:19:44;;;;;;;;;;;;;;;;;;5046641;28;19921;-78
2023/02/19 07:22:09;;;;;;;;;;;;;;;;;;5030670;28;19948;-78
2023/02/19 07:24:34;;;;;;;;;;;;;;;;;;5028916;28;19921;-78
2023/02/19 07:27:00;;;;;;;;;;;;;;;;;;5043298;28;20348;-78
2023/02/19 07:29:25;;;;;;;;;;;;;;;;;;5047150;28;19960;-78
2023/02/19 07:31:50;;;;;;;;;;;;;;;;;;5028173;28;19921;-79
2023/02/19 07:34:15;;;;;;;;;;;;;;;;;;5032012;28;20043;-81
2023/02/19 07:36:40;;;;;;;;;;;;;;;;;;5056976;28;19919;-78
2023/02/19 07:39:05;;;;;;;;;;;;;;;;;;5046854;28;19921;-79
2023/02/19 07:41:30;;;;;;;;;;;;;;;;;;5043673;28;19936;-80
2023/02/19 07:43:56;;;;;;;;;;;;;;;;;;5041066;28;19929;-79
2023/02/19 07:46:21;;;;;;;;;;;;;;;;;;5047118;28;19909;-79
2023/02/19 07:48:46;;;;;;;;;;;;;;;;;;5042608;28;19917;-78
2023/02/19 07:51:11;;;;;;;;;;;;;;;;;;5023741;28;19909;-81
2023/02/19 07:53:36;;;;;;;;;;;;;;;;;;5046041;28;19919;-80
2023/02/19 07:56:01;;;;;;;;;;;;;;;;;;5046852;28;20348;-78
2023/02/19 07:58:26;;;;;;;;;;;;;;;;;;5031003;28;19975;-78
2023/02/19 08:00:51;;;;;;;;;;;;;;;;;;5029713;28;19924;-79
2023/02/19 08:03:17;;;;;;;;;;;;;;;;;;5029409;28;19917;-81
2023/02/19 08:05:42;;;;;;;;;;;;;;;;;;5030865;28;19916;-79
2023/02/19 08:08:07;;;;;;;;;;;;;;;;;;5031284;28;20371;-78
2023/02/19 08:13:23;;;;;;;;;;;;;;;;;;5029186;28;19979;-78
2023/02/19 08:15:48;;;;;;;;;;;;;;;;;;5035830;28;19956;-78
2023/02/19 08:18:13;;;;;;;;;;;;;;;;;;5026586;28;19963;-77
2023/02/19 08:20:38;;;;;;;;;;;;;;;;;;5032197;28;19917;-78
2023/02/19 08:23:03;;;;;;;;;;;;;;;;;;5032411;28;19960;-77
2023/02/19 08:25:28;;;;;;;;;;;;;;;;;;5034895;28;20379;-77
2023/02/19 08:27:54;;;;;;;;;;;;;;;;;;5034843;28;19913;-77
2023/02/19 08:30:19;;;;;;;;;;;;;;;;;;5033735;28;19917;-79
2023/02/19 08:32:44;;;;;;;;;;;;;;;;;;5047901;28;19920;-78
2023/02/19 08:35:09;;;;;;;;;;;;;;;;;;5034109;28;19920;-77
2023/02/19 08:37:34;;;;;;;;;;;;;;;;;;5029647;28;20383;-79
2023/02/19 08:39:59;;;;;;;;;;;;;;;;;;5034177;28;19955;-78
2023/02/19 08:42:24;;;;;;;;;;;;;;;;;;5029299;28;19921;-78
2023/02/19 08:44:49;;;;;;;;;;;;;;;;;;5032516;28;19933;-79
2023/02/19 08:47:15;;;;;;;;;;;;;;;;;;5040796;28;19913;-79
2023/02/19 08:49:40;;;;;;;;;;;;;;;;;;5035735;28;20004;-77
2023/02/19 08:52:05;;;;;;;;;;;;;;;;;;5036764;28;19961;-77
2023/02/19 08:54:30;;;;;;;;;;;;;;;;;;5033294;28;20295;-78
2023/02/19 08:56:55;;;;;;;;;;;;;;;;;;5034692;28;19916;-78
2023/02/19 08:59:20;;;;;;;;;;;;;;;;;;5040714;28;19913;-79
2023/02/19 09:01:45;;;;;;;;;;;;;;;;;;5027096;28;19913;-78
2023/02/19 09:04:11;;;;;;;;;;;;;;;;;;5036839;28;19924;-78
2023/02/19 09:06:36;;;;;;;;;;;;;;;;;;5033600;28;19917;-78
2023/02/19 09:09:01;;;;;;;;;;;;;;;;;;5039609;28;20019;-78
2023/02/19 09:11:26;;;;;;;;;;;;;;;;;;5029629;28;19917;-78
2023/02/19 09:13:51;;;;;;;;;;;;;;;;;;5040699;28;19909;-78
2023/02/19 09:16:16;;;;;;;;;;;;;;;;;;5032385;28;20264;-78
2023/02/19 09:18:44;;;;;;;;;;;;;;;;;;5033279;28;19914;-78
2023/02/19 09:21:09;;;;;;;;;;;;;;;;;;5037400;28;19912;-78
2023/02/19 09:23:34;;;;;;;;;;;;;;;;;;5048654;28;19916;-78
2023/02/19 09:26:00;;;;;;;;;;;;;;;;;;5036969;28;20375;-78
2023/02/19 09:28:25;;;;;;;;;;;;;;;;;;5048108;28;19920;-79
2023/02/19 09:30:50;;;;;;;;;;;;;;;;;;5032530;28;19966;-79
2023/02/19 09:33:15;;;;;;;;;;;;;;;;;;5037902;28;20004;-78
2023/02/19 09:35:40;;;;;;;;;;;;;;;;;;5042479;28;20169;-79
2023/02/19 09:38:06;;;;;;;;;;;;;;;;;;5032801;28;20016;-78
2023/02/19 09:40:31;;;;;;;;;;;;;;;;;;5032218;28;20421;-78
2023/02/19 09:42:56;;;;;;;;;;;;;;;;;;5030013;28;19917;-79
2023/02/19 09:45:21;;;;;;;;;;;;;;;;;;5026977;28;19940;-79
2023/02/19 09:47:46;;;;;;;;;;;;;;;;;;5030525;28;19917;-78
2023/02/19 09:50:11;;;;;;;;;;;;;;;;;;5039669;28;19913;-78
2023/02/19 09:52:37;;;;;;;;;;;;;;;;;;5032232;28;19916;-78
2023/02/19 09:55:02;;;;;;;;;;;;;;;;;;5039263;28;20349;-79
2023/02/19 09:57:27;;;;;;;;;;;;;;;;;;5031194;28;19952;-78
2023/02/19 09:59:53;;;;;;;;;;;;;;;;;;5033410;28;19944;-78
2023/02/19 10:02:18;;;;;;;;;;;;;;;;;;5038334;28;19914;-78
2023/02/19 10:04:43;;;;;;;;;;;;;;;;;;5034658;28;19979;-78
2023/02/19 10:07:08;;;;;;;;;;;;;;;;;;5025155;28;20292;-80
2023/02/19 10:09:33;;;;;;;;;;;;;;;;;;5036504;28;20340;-78
2023/02/19 10:11:59;;;;;;;;;;;;;;;;;;5030237;28;19924;-78
2023/02/19 10:14:24;;;;;;;;;;;;;;;;;;5030749;28;19963;-79
2023/02/19 10:16:49;;;;;;;;;;;;;;;;;;5032881;28;20004;-78
2023/02/19 10:19:14;;;;;;;;;;;;;;;;;;5031432;28;20304;-79
2023/02/19 10:21:39;;;;;;;;;;;;;;;;;;5033083;28;20387;-78
2023/02/19 10:24:05;;;;;;;;;;;;;;;;;;5052217;28;19923;-79
2023/02/19 10:26:35;;;;;;;;;;;;;;;;;;5031275;28;19928;-78
2023/02/19 10:29:00;;;;;;;;;;;;;;;;;;5027979;28;19920;-78
2023/02/19 10:31:25;;;;;;;;;;;;;;;;;;5030582;28;19921;-78
2023/02/19 10:33:50;;;;;;;;;;;;;;;;;;5047912;28;19920;-77
2023/02/19 10:36:15;;;;;;;;;;;;;;;;;;5037473;28;19912;-76
2023/02/19 10:38:41;;;;;;;;;;;;;;;;;;5037830;28;19936;-76
2023/02/19 10:41:06;;;;;;;;;;;;;;;;;;5031466;28;19917;-78
2023/02/19 10:43:32;;;;;;;;;;;;;;;;;;5031767;28;19917;-77
2023/02/19 10:45:57;;;;;;;;;;;;;;;;;;5028889;28;19913;-76
2023/02/19 10:48:23;;;;;;;;;;;;;;;;;;5041181;28;19919;-77
2023/02/19 10:50:50;;;;;;;;;;;;;;;;;;5040861;28;19913;-76
2023/02/19 10:53:15;;;;;;;;;;;;;;;;;;5062018;28;19913;-76
2023/02/19 10:55:40;;;;;;;;;;;;;;;;;;5034634;28;19935;-76
2023/02/19 10:58:06;;;;;;;;;;;;;;;;;;5033605;28;19917;-77
2023/02/19 11:00:31;;;;;;;;;;;;;;;;;;5030994;28;19920;-76
2023/02/19 11:02:56;;;;;;;;;;;;;;;;;;5028831;28;19921;-76
2023/02/19 11:05:22;;;;;;;;;;;;;;;;;;5027368;28;19921;-76
2023/02/19 11:07:47;;;;;;;;;;;;;;;;;;5028263;28;19913;-77
2023/02/19 11:10:12;;;;;;;;;;;;;;;;;;5046537;28;19936;-76
2023/02/19 11:12:37;;;;;;;;;;;;;;;;;;5043765;28;19920;-79
2023/02/19 11:15:02;;;;;;;;;;;;;;;;;;5029110;28;19914;-76
2023/02/19 11:17:27;;;;;;;;;;;;;;;;;;5022354;28;19913;-75
2023/02/19 11:19:52;;;;;;;;;;;;;;;;;;5025562;28;20298;-76
2023/02/19 11:22:18;;;;;;;;;;;;;;;;;;5034537;28;19919;-74
2023/02/19 11:24:43;;;;;;;;;;;;;;;;;;5046349;28;19929;-75
2023/02/19 11:27:08;;;;;;;;;;;;;;;;;;5033978;28;19917;-75
2023/02/19 11:29:34;;;;;;;;;;;;;;;;;;5030333;28;19913;-75
2023/02/19 11:31:59;;;;;;;;;;;;;;;;;;5024364;28;19939;-74
2023/02/19 11:34:28;;;;;;;;;;;;;;;;;;5030383;28;19967;-74
2023/02/19 11:36:53;;;;;;;;;;;;;;;;;;5021734;28;19959;-75
2023/02/19 11:39:18;;;;;;;;;;;;;;;;;;5027001;28;19909;-74
2023/02/19 11:41:43;;;;;;;;;;;;;;;;;;5042931;28;19913;-75
2023/02/19 11:44:09;;;;;;;;;;;;;;;;;;5030411;28;19917;-75
2023/02/19 11:46:34;;;;;;;;;;;;;;;;;;5022720;28;19916;-74
2023/02/19 11:48:59;;;;;;;;;;;;;;;;;;5039758;28;20636;-74
2023/02/19 11:51:26;;;;;;;;;;;;;;;;;;5040791;28;20447;-75
2023/02/19 11:53:51;;;;;;;;;;;;;;;;;;5023945;28;19913;-75
2023/02/19 11:56:16;;;;;;;;;;;;;;;;;;5031082;28;19917;-74
2023/02/19 11:58:42;;;;;;;;;;;;;;;;;;5026845;28;20016;-74
2023/02/19 12:01:07;;;;;;;;;;;;;;;;;;5041877;28;19920;-75
2023/02/19 12:03:32;;;;;;;;;;;;;;;;;;5027251;28;19917;-74
2023/02/19 12:05:57;;;;;;;;;;;;;;;;;;5039785;28;19917;-74
2023/02/19 12:08:22;;;;;;;;;;;;;;;;;;5028265;28;19968;-74
2023/02/19 12:10:47;;;;;;;;;;;;;;;;;;5046012;28;19930;-75
2023/02/19 12:13:12;;;;;;;;;;;;;;;;;;5029659;28;20383;-75
2023/02/19 12:15:38;;;;;;;;;;;;;;;;;;5032529;28;19971;-75
2023/02/19 12:18:03;;;;;;;;;;;;;;;;;;5028183;28;19917;-76
2023/02/19 12:20:28;;;;;;;;;;;;;;;;;;5034226;28;20256;-76
2023/02/19 12:22:53;;;;;;;;;;;;;;;;;;5032659;28;19913;-76
2023/02/19 12:25:18;;;;;;;;;;;;;;;;;;5036430;28;19960;-75
2023/02/19 12:27:43;;;;;;;;;;;;;;;;;;5031376;28;19920;-75
2023/02/19 12:30:09;;;;;;;;;;;;;;;;;;5031988;28;19917;-74
2023/02/19 12:32:34;;;;;;;;;;;;;;;;;;5031912;28;19935;-75
2023/02/19 12:34:59;;;;;;;;;;;;;;;;;;5035560;28;19917;-75
2023/02/19 12:37:24;;;;;;;;;;;;;;;;;;5033600;28;19943;-75
2023/02/19 12:39:49;;;;;;;;;;;;;;;;;;5035636;28;20405;-76
2023/02/19 12:42:14;;;;;;;;;;;;;;;;;;5029572;28;20368;-75
2023/02/19 12:44:39;;;;;;;;;;;;;;;;;;5029344;28;20015;-76
2023/02/19 12:47:08;;;;;;;;;;;;;;;;;;5026778;28;19932;-78
2023/02/19 12:49:33;;;;;;;;;;;;;;;;;;5029695;28;20020;-77
2023/02/19 12:51:58;;;;;;;;;;;;;;;;;;5028657;28;20351;-78
2023/02/19 12:54:23;;;;;;;;;;;;;;;;;;5040704;28;19919;-76
2023/02/19 12:56:48;;;;;;;;;;;;;;;;;;5025451;28;19920;-78
2023/02/19 12:59:14;;;;;;;;;;;;;;;;;;5028403;28;19917;-76
2023/02/19 13:01:40;;;;;;;;;;;;;;;;;;5024797;28;19971;-76
2023/02/19 13:04:06;;;;;;;;;;;;;;;;;;5028442;28;19917;-76
2023/02/19 13:06:31;;;;;;;;;;;;;;;;;;5026702;28;20374;-75
2023/02/19 13:08:57;;;;;;;;;;;;;;;;;;5028620;28;19947;-76
2023/02/19 13:11:22;;;;;;;;;;;;;;;;;;5032488;28;19925;-75
2023/02/19 13:13:47;;;;;;;;;;;;;;;;;;5026394;28;19913;-75
2023/02/19 13:16:14;;;;;;;;;;;;;;;;;;5025603;28;19955;-75
2023/02/19 13:18:39;;;;;;;;;;;;;;;;;;5041638;28;20272;-76
2023/02/19 13:21:05;;;;;;;;;;;;;;;;;;5029075;28;20341;-76
2023/02/19 13:26:13;;;;;;;;;;;;;;;;;;5028048;28;20387;-76
2023/02/19 13:28:39;;;;;;;;;;;;;;;;;;5026240;28;20383;-75
2023/02/19 13:31:04;;;;;;;;;;;;;;;;;;5026784;28;19917;-76
2023/02/19 13:33:29;;;;;;;;;;;;;;;;;;5025060;28;19921;-77
2023/02/19 13:35:54;;;;;;;;;;;;;;;;;;5029244;28;19920;-76
2023/02/19 13:38:19;;;;;;;;;;;;;;;;;;5044627;28;19914;-77
2023/02/19 13:40:44;;;;;;;;;;;;;;;;;;5026700;28;20272;-77
2023/02/19 13:43:09;;;;;;;;;;;;;;;;;;5040993;28;19913;-76
2023/02/19 13:45:35;;;;;;;;;;;;;;;;;;5041485;28;20276;-77
2023/02/19 13:48:00;;;;;;;;;;;;;;;;;;5022354;28;20322;-77
2023/02/19 13:50:25;;;;;;;;;;;;;;;;;;5026070;28;20350;-77
2023/02/19 13:52:50;;;;;;;;;;;;;;;;;;5043578;28;19924;-77
2023/02/19 13:55:15;;;;;;;;;;;;;;;;;;5026639;28;21131;-77
2023/02/19 13:57:40;;;;;;;;;;;;;;;;;;5040386;28;19925;-77
2023/02/19 14:00:06;;;;;;;;;;;;;;;;;;5027023;28;19921;-76
2023/02/19 14:02:31;;;;;;;;;;;;;;;;;;5027127;28;19913;-76
2023/02/19 14:04:56;;;;;;;;;;;;;;;;;;5025306;28;19957;-76
2023/02/19 14:07:21;;;;;;;;;;;;;;;;;;5042183;28;19935;-76
2023/02/19 14:09:46;;;;;;;;;;;;;;;;;;5042251;28;20339;-76
2023/02/19 14:12:11;;;;;;;;;;;;;;;;;;5026431;28;20020;-77
2023/02/19 14:14:36;;;;;;;;;;;;;;;;;;5028956;28;19913;-77
2023/02/19 14:17:04;;;;;;;;;;;;;;;;;;5029072;28;19922;-77
2023/02/19 14:19:29;;;;;;;;;;;;;;;;;;5029592;28;19913;-77
2023/02/19 14:21:54;;;;;;;;;;;;;;;;;;5027172;28;19913;-77
2023/02/19 14:24:20;;;;;;;;;;;;;;;;;;5028030;28;20015;-77
2023/02/19 14:26:45;;;;;;;;;;;;;;;;;;5030633;28;20274;-77
2023/02/19 14:29:10;;;;;;;;;;;;;;;;;;5044318;28;19921;-77
2023/02/19 14:31:36;;;;;;;;;;;;;;;;;;5049593;28;20331;-77
2023/02/19 14:34:02;;;;;;;;;;;;;;;;;;5029839;28;20410;-77
2023/02/19 14:36:27;;;;;;;;;;;;;;;;;;5030906;28;19928;-79
2023/02/19 14:38:52;;;;;;;;;;;;;;;;;;5048425;28;19913;-80
2023/02/19 14:41:17;;;;;;;;;;;;;;;;;;5043153;28;19921;-76
2023/02/19 14:43:43;;;;;;;;;;;;;;;;;;5027937;28;19928;-76
2023/02/19 14:46:08;;;;;;;;;;;;;;;;;;5035222;28;19959;-79
2023/02/19 14:48:33;;;;;;;;;;;;;;;;;;5045009;28;19967;-76
2023/02/19 14:50:58;;;;;;;;;;;;;;;;;;5027530;28;19913;-77
2023/02/19 14:53:23;;;;;;;;;;;;;;;;;;5029146;28;19987;-76
2023/02/19 14:55:48;;;;;;;;;;;;;;;;;;5042736;28;19913;-78
2023/02/19 14:58:14;;;;;;;;;;;;;;;;;;5041307;28;19917;-76
2023/02/19 15:00:39;;;;;;;;;;;;;;;;;;5028396;28;19909;-77
2023/02/19 15:03:04;;;;;;;;;;;;;;;;;;5041446;28;19913;-77
2023/02/19 15:05:29;;;;;;;;;;;;;;;;;;5026680;28;19967;-76
2023/02/19 15:07:54;;;;;;;;;;;;;;;;;;5025418;28;19988;-77
2023/02/19 15:10:20;;;;;;;;;;;;;;;;;;5028369;28;19921;-76
2023/02/19 15:12:45;;;;;;;;;;;;;;;;;;5023179;28;19959;-77
2023/02/19 15:15:10;;;;;;;;;;;;;;;;;;5023725;28;19921;-75
2023/02/19 15:17:35;;;;;;;;;;;;;;;;;;5039666;28;20383;-77
2023/02/19 15:20:01;;;;;;;;;;;;;;;;;;5042541;28;20024;-75
2023/02/19 15:22:33;;;;;;;;;;;;;;;;;;5034178;28;20379;-75
2023/02/19 15:24:58;;;;;;;;;;;;;;;;;;5031193;28;20042;-75
2023/02/19 15:27:23;;;;;;;;;;;;;;;;;;5037910;28;20003;-75
2023/02/19 15:29:48;;;;;;;;;;;;;;;;;;5039089;28;19940;-75
2023/02/19 15:32:13;;;;;;;;;;;;;;;;;;5032950;28;20336;-74
2023/02/19 15:34:40;;;;;;;;;;;;;;;;;;5028343;28;19917;-74
2023/02/19 15:37:05;;;;;;;;;;;;;;;;;;5031148;28;19923;-75
2023/02/19 15:39:31;;;;;;;;;;;;;;;;;;5030338;28;19925;-76
2023/02/19 15:41:56;;;;;;;;;;;;;;;;;;5044521;28;19960;-76
2023/02/19 15:44:21;;;;;;;;;;;;;;;;;;5047221;28;19917;-75
2023/02/19 15:46:46;;;;;;;;;;;;;;;;;;5043110;28;19924;-75
2023/02/19 15:49:11;;;;;;;;;;;;;;;;;;5049476;28;20371;-74
2023/02/19 15:51:36;;;;;;;;;;;;;;;;;;5037036;28;20403;-75
2023/02/19 15:54:02;;;;;;;;;;;;;;;;;;5036265;28;19910;-76
2023/02/19 15:56:29;;;;;;;;;;;;;;;;;;5032293;28;19920;-76
2023/02/19 15:58:54;;;;;;;;;;;;;;;;;;5042224;28;19923;-76
2023/02/19 16:01:19;;;;;;;;;;;;;;;;;;5030975;28;19913;-76
2023/02/19 16:03:44;;;;;;;;;;;;;;;;;;5031103;28;19967;-75
2023/02/19 16:06:10;;;;;;;;;;;;;;;;;;5029081;28;19979;-76
2023/02/19 16:08:35;;;;;;;;;;;;;;;;;;5034329;28;19913;-74
2023/02/19 16:11:00;;;;;;;;;;;;;;;;;;5033842;28;19917;-74
2023/02/19 16:13:25;;;;;;;;;;;;;;;;;;5029542;28;20374;-75
2023/02/19 16:15:50;;;;;;;;;;;;;;;;;;5039937;28;19916;-74
2023/02/19 16:18:16;;;;;;;;;;;;;;;;;;5058281;28;19913;-75
2023/02/19 16:20:41;;;;;;;;;;;;;;;;;;5041698;28;19923;-76
2023/02/19 16:23:06;;;;;;;;;;;;;;;;;;5033496;28;20317;-76
2023/02/19 16:25:31;;;;;;;;;;;;;;;;;;5040220;28;19932;-76
2023/02/19 16:27:56;;;;;;;;;;;;;;;;;;5044295;28;20008;-76
2023/02/19 16:30:24;;;;;;;;;;;;;;;;;;5034801;28;20023;-76
2023/02/19 16:32:49;;;;;;;;;;;;;;;;;;5034590;28;19913;-76
2023/02/19 16:35:14;;;;;;;;;;;;;;;;;;5031794;28;19936;-76
2023/02/19 16:37:41;;;;;;;;;;;;;;;;;;5044082;28;19917;-76
2023/02/19 16:40:06;;;;;;;;;;;;;;;;;;5034215;28;19913;-75
2023/02/19 16:42:31;;;;;;;;;;;;;;;;;;5031456;28;19913;-76
2023/02/19 16:44:56;;;;;;;;;;;;;;;;;;5031987;28;19982;-75
2023/02/19 16:47:21;;;;;;;;;;;;;;;;;;5035615;28;19920;-75
2023/02/19 16:49:46;;;;;;;;;;;;;;;;;;5035326;28;19914;-75
2023/02/19 16:52:12;;;;;;;;;;;;;;;;;;5033034;28;19917;-75
2023/02/19 16:54:37;;;;;;;;;;;;;;;;;;5031761;28;19917;-76
2023/02/19 16:57:02;;;;;;;;;;;;;;;;;;5062678;28;19917;-75
2023/02/19 16:59:27;;;;;;;;;;;;;;;;;;5052104;28;20333;-75